Time;durP1;ratioP1;P1;durP2;ratioP2;P2;SDS_P1;SDS_P2;PMS_P1;PMS_P2;Temp;Humidity;BMP_temperature;BMP_pressure;BME280_temperature;BME280_humidity;BME280_pressure;Samples;Min_cycle;Max_cycle;Signal;HPM_P1;HPM_P2
2022/05/18 00:01:59;;;;;;;10.47;2.10;;;;;;;16.85;38.75;100208.41;127124;1095;102476;-78
2022/05/18 00:07:10;;;;;;;8.57;2.60;;;;;;;16.74;38.60;100210.13;125658;1102;102238;-77
2022/05/18 00:28:48;;;;;;;7.17;2.07;;;;;;;16.31;37.00;100223.97;125310;1105;107814;-76
2022/05/18 00:32:14;;;;;;;5.77;2.47;;;;;;;16.24;36.58;100223.91;125448;1105;104278;-76
2022/05/18 00:39:10;;;;;;;5.77;2.43;;;;;;;16.15;36.53;100230.87;124987;1109;102469;-77
2022/05/18 01:01:46;;;;;;;5.93;2.47;;;;;;;15.84;38.03;100253.52;124872;1105;104428;-77
2022/05/18 01:11:51;;;;;;;3.93;2.10;;;;;;;15.38;38.33;100261.80;125437;1106;104329;-76
2022/05/18 01:23:50;;;;;;;3.20;1.80;;;;;;;14.83;40.11;100261.06;125747;1102;102084;-76
2022/05/18 01:49:27;;;;;;;4.60;2.20;;;;;;;14.79;40.29;100265.42;125719;1102;102633;-77
2022/05/18 01:52:34;;;;;;;4.97;2.10;;;;;;;14.76;40.13;100268.02;125512;1105;104506;-77
2022/05/18 01:55:42;;;;;;;7.07;2.17;;;;;;;14.72;39.40;100275.02;125267;1106;104178;-76
2022/05/18 02:01:58;;;;;;;6.67;2.00;;;;;;;14.62;38.60;100272.20;125067;1109;107897;-76
2022/05/18 02:04:49;;;;;;;8.27;2.20;;;;;;;14.57;38.80;100282.66;125045;1109;102222;-75
2022/05/18 02:21:21;;;;;;;8.17;2.20;;;;;;;14.03;36.10;100316.91;124437;1112;102350;-76
2022/05/18 02:24:17;;;;;;;12.90;2.47;;;;;;;13.89;35.23;100313.13;125035;1109;102257;-77
2022/05/18 02:30:49;;;;;;;7.10;2.20;;;;;;;13.80;35.37;100326.14;124271;1109;104370;-78
2022/05/18 02:33:55;;;;;;;17.20;2.63;;;;;;;13.78;35.38;100334.02;124370;1109;102761;-77
2022/05/18 02:36:32;;;;;;;9.30;2.60;;;;;;;13.76;35.54;100338.38;124925;1109;101856;-79
2022/05/18 02:42:56;;;;;;;11.30;2.57;;;;;;;13.67;34.61;100348.74;124365;1108;104098;-77
2022/05/18 02:49:39;;;;;;;10.15;2.95;;;;;;;13.58;33.51;100361.73;124487;1109;104255;-77
2022/05/18 02:59:04;;;;;;;9.07;2.43;;;;;;;13.46;33.85;100359.70;124513;1112;102252;-76
2022/05/18 03:01:58;;;;;;;12.07;2.40;;;;;;;13.40;33.67;100370.12;124270;1112;102175;-77
2022/05/18 03:04:46;;;;;;;8.13;2.40;;;;;;;13.35;33.71;100379.67;124110;1109;104214;-76
2022/05/18 03:07:45;;;;;;;6.33;2.43;;;;;;;13.30;33.55;100377.78;124769;1109;104105;-77
2022/05/18 03:10:46;;;;;;;5.65;2.20;;;;;;;13.31;33.94;100376.06;124246;1112;102151;-77
2022/05/18 03:16:53;;;;;;;6.53;2.00;;;;;;;13.26;33.72;100393.48;124511;1111;104487;-77
2022/05/18 03:23:53;;;;;;;5.83;2.10;;;;;;;13.18;34.25;100411.75;124410;1112;104316;-77
2022/05/18 03:27:13;;;;;;;9.17;2.00;;;;;;;13.10;34.01;100410.69;124516;1112;104077;-76
2022/05/18 03:47:04;;;;;;;7.73;2.13;;;;;;;12.70;34.44;100439.56;124409;1112;102764;-76
2022/05/18 03:52:27;;;;;;;6.63;2.10;;;;;;;12.65;34.69;100463.97;124140;1109;104449;-76
2022/05/18 03:58:04;;;;;;;7.90;2.10;;;;;;;12.59;34.60;100468.23;123822;1109;104446;-77
2022/05/18 04:01:08;;;;;;;12.50;2.33;;;;;;;12.55;34.82;100468.11;124219;1109;102761;-77
2022/05/18 04:04:29;;;;;;;3.80;1.90;;;;;;;12.56;34.97;100470.78;124387;1112;104432;-76
2022/05/18 04:07:10;;;;;;;5.40;2.07;;;;;;;12.60;35.12;100477.02;123908;1112;104249;-77
2022/05/18 04:09:49;;;;;;;5.93;2.03;;;;;;;12.55;35.19;100471.63;123935;1109;104249;-77
2022/05/18 04:12:48;;;;;;;7.80;1.97;;;;;;;12.58;35.33;100474.34;124509;1109;104454;-77
2022/05/18 04:15:53;;;;;;;9.23;2.20;;;;;;;12.56;35.38;100476.05;124761;1109;102851;-77
2022/05/18 04:18:44;;;;;;;7.07;2.17;;;;;;;12.55;35.45;100471.63;124738;1109;104300;-78
2022/05/18 04:21:54;;;;;;;7.83;2.03;;;;;;;12.50;35.51;100481.14;124610;1109;103216;-77
2022/05/18 04:24:44;;;;;;;5.37;2.23;;;;;;;12.43;35.68;100483.56;125135;1109;104185;-78
2022/05/18 04:27:17;;;;;;;5.00;1.70;;;;;;;12.35;35.96;100485.98;124647;1109;104281;-77
2022/05/18 04:29:49;;;;;;;7.53;2.07;;;;;;;12.25;35.42;100476.94;123834;1108;104245;-78
2022/05/18 04:32:22;;;;;;;10.40;2.10;;;;;;;12.22;36.06;100480.36;123935;1109;103012;-78
2022/05/18 04:34:54;;;;;;;5.50;1.80;;;;;;;12.22;36.03;100480.36;123957;1109;104210;-77
2022/05/18 04:37:26;;;;;;;5.67;2.23;;;;;;;12.19;36.32;100485.53;123928;1109;104237;-77
2022/05/18 04:43:53;;;;;;;5.33;2.00;;;;;;;12.07;36.38;100489.56;125686;1105;102867;-79
2022/05/18 04:47:10;;;;;;;5.67;2.20;;;;;;;12.05;36.89;100500.03;125707;1105;102505;-79
2022/05/18 04:50:40;;;;;;;9.60;2.07;;;;;;;12.05;36.99;100500.03;124976;1102;104169;-79
2022/05/18 04:53:23;;;;;;;7.00;1.97;;;;;;;12.04;37.20;100482.45;124874;1102;102354;-79
2022/05/18 04:55:56;;;;;;;7.03;2.07;;;;;;;12.05;36.78;100482.50;125482;1102;101765;-78
2022/05/18 04:58:38;;;;;;;7.47;2.30;;;;;;;12.12;37.15;100496.72;125238;1102;104153;-79
2022/05/18 05:01:10;;;;;;;3.97;2.23;;;;;;;12.20;37.30;100491.68;125124;1102;102409;-79
2022/05/18 05:04:02;;;;;;;10.40;2.20;;;;;;;12.23;37.17;100479.53;125421;1102;104172;-79
2022/05/18 05:06:37;;;;;;;5.42;2.02;;;;;;;12.21;37.00;100494.35;125358;1105;104258;-79
2022/05/18 05:09:08;;;;;;;8.37;2.20;;;;;;;12.15;37.35;100488.91;125444;1102;102107;-78
2022/05/18 05:11:39;;;;;;;6.97;2.43;;;;;;;12.18;37.26;100490.75;125314;1102;103044;-79
2022/05/18 05:14:08;;;;;;;6.53;2.30;;;;;;;12.19;37.72;100496.06;125246;1102;105601;-78
2022/05/18 05:16:43;;;;;;;11.67;2.80;;;;;;;12.19;37.72;100492.55;125315;1102;104163;-79
2022/05/18 05:19:14;;;;;;;4.43;1.83;;;;;;;12.20;37.73;100483.78;125165;1103;102943;-79
2022/05/18 05:21:44;;;;;;;7.77;2.27;;;;;;;12.25;37.85;100495.36;125243;1102;102589;-79
2022/05/18 05:24:19;;;;;;;6.63;2.37;;;;;;;12.29;37.64;100506.84;125343;1102;103175;-79
2022/05/18 05:30:08;;;;;;;9.50;2.00;;;;;;;12.29;37.17;100509.48;125589;1102;104153;-80
2022/05/18 05:33:09;;;;;;;3.70;1.80;;;;;;;12.40;37.19;100513.30;125500;1102;103049;-79
2022/05/18 05:35:42;;;;;;;12.73;2.43;;;;;;;12.50;37.35;100515.36;125548;1102;104319;-80
2022/05/18 05:38:13;;;;;;;3.53;2.10;;;;;;;12.54;37.12;100530.40;125576;1102;104183;-78
2022/05/18 05:40:43;;;;;;;5.43;2.13;;;;;;;12.52;36.70;100525.93;125283;1102;102117;-78
2022/05/18 05:43:14;;;;;;;5.03;1.77;;;;;;;12.54;37.09;100530.40;125162;1102;104258;-77
2022/05/18 05:45:56;;;;;;;4.97;2.00;;;;;;;12.56;37.20;100533.95;124704;1102;104198;-79
2022/05/18 05:48:30;;;;;;;5.47;2.17;;;;;;;12.65;37.02;100537.69;125417;1101;104162;-79
2022/05/18 05:51:10;;;;;;;4.40;1.80;;;;;;;12.71;36.42;100540.48;125474;1102;104235;-81
2022/05/18 05:53:44;;;;;;;7.30;1.70;;;;;;;12.73;36.44;100571.29;125631;1102;108319;-78
2022/05/18 05:56:17;;;;;;;8.37;2.07;;;;;;;12.71;35.99;100541.37;125489;1102;103590;-78
2022/05/18 05:58:50;;;;;;;6.30;1.60;;;;;;;12.68;35.38;100541.28;125374;1102;102603;-78
2022/05/18 06:01:23;;;;;;;4.93;1.70;;;;;;;12.68;35.84;100545.67;125613;1102;104155;-80
2022/05/18 06:04:15;;;;;;;7.47;2.10;;;;;;;12.67;35.21;100557.04;125661;1102;117832;-80
2022/05/18 06:06:52;;;;;;;6.87;1.60;;;;;;;12.63;35.40;100549.92;125624;1102;103273;-82
2022/05/18 06:09:26;;;;;;;5.60;1.40;;;;;;;12.65;35.54;100556.11;125660;1102;104150;-79
2022/05/18 06:12:01;;;;;;;6.40;1.40;;;;;;;12.71;35.63;100558.92;125678;1102;103033;-79
2022/05/18 06:14:31;;;;;;;6.67;1.40;;;;;;;12.72;34.64;100572.13;125531;1102;102498;-78
2022/05/18 06:17:13;;;;;;;7.57;1.63;;;;;;;12.75;34.61;100566.06;125315;1105;104300;-81
2022/05/18 06:19:51;;;;;;;5.83;1.27;;;;;;;12.73;34.25;100563.39;125122;1105;104705;-79
2022/05/18 06:22:25;;;;;;;3.93;1.37;;;;;;;12.74;34.59;100564.27;125342;1106;102709;-80
2022/05/18 06:25:01;;;;;;;4.40;1.30;;;;;;;12.77;34.90;100553.83;125361;1102;102776;-79
2022/05/18 06:27:52;;;;;;;12.30;1.47;;;;;;;12.80;34.85;100568.83;125431;1103;101731;-80
2022/05/18 06:30:32;;;;;;;5.20;1.50;;;;;;;12.92;35.49;100563.90;125509;1103;104139;-79
2022/05/18 06:33:07;;;;;;;6.10;1.53;;;;;;;12.98;35.38;100584.22;125343;1105;104153;-78
2022/05/18 06:35:57;;;;;;;10.00;2.27;;;;;;;12.94;35.22;100578.87;125290;1105;104345;-81
2022/05/18 06:38:45;;;;;;;7.90;1.33;;;;;;;12.95;35.54;100577.16;125264;1102;102340;-77
2022/05/18 06:41:25;;;;;;;5.13;1.50;;;;;;;12.95;35.41;100580.67;125202;1105;103514;-78
2022/05/18 06:44:07;;;;;;;10.27;1.97;;;;;;;13.07;35.76;100593.29;125142;1102;104185;-79
2022/05/18 06:46:38;;;;;;;4.63;1.50;;;;;;;13.12;35.41;100583.76;124417;1105;103838;-79
2022/05/18 06:49:26;;;;;;;5.83;1.40;;;;;;;13.15;35.10;100605.75;124624;1102;104347;-78
2022/05/18 06:52:12;;;;;;;6.00;1.67;;;;;;;13.26;35.18;100602.57;125295;1102;103148;-77
2022/05/18 06:55:02;;;;;;;4.57;1.50;;;;;;;13.36;34.83;100579.13;125457;1102;102745;-78
2022/05/18 06:57:50;;;;;;;5.33;1.60;;;;;;;13.51;35.21;100581.23;125586;1102;104204;-80
2022/05/18 07:00:33;;;;;;;3.40;1.53;;;;;;;13.60;34.77;100600.84;125488;1102;102742;-79
2022/05/18 07:03:15;;;;;;;7.40;1.40;;;;;;;13.68;33.65;100589.56;125504;1102;104163;-80
2022/05/18 07:05:49;;;;;;;3.43;1.53;;;;;;;13.70;33.69;100601.95;125650;1102;103767;-77
2022/05/18 07:08:42;;;;;;;6.60;1.47;;;;;;;13.88;34.61;100604.12;125372;1102;101922;-80
2022/05/18 07:11:22;;;;;;;7.37;1.10;;;;;;;13.92;33.19;100605.98;125495;1102;105010;-77
2022/05/18 07:14:34;;;;;;;2.30;1.30;;;;;;;13.99;33.74;100601.73;125380;1102;104128;-80
2022/05/18 07:17:13;;;;;;;3.90;1.37;;;;;;;14.08;33.38;100591.40;125418;1102;104172;-78
2022/05/18 07:19:53;;;;;;;6.50;1.23;;;;;;;14.23;33.43;100593.50;124997;1102;104208;-79
2022/05/18 07:22:55;;;;;;;;;;;;;;;;;;;;;
2022/05/18 07:25:28;;;;;;;11.53;1.60;;;;;;;14.47;34.02;100605.45;125510;1102;104067;-79
2022/05/18 07:28:35;;;;;;;3.17;1.23;;;;;;;14.55;33.19;100596.84;125625;1102;104245;-80
2022/05/18 07:31:20;;;;;;;6.67;1.73;;;;;;;14.78;33.29;100611.41;125345;1102;104190;-79
2022/05/18 07:33:56;;;;;;;3.67;1.47;;;;;;;14.93;33.25;100606.44;126113;1100;104290;-79
2022/05/18 07:36:26;;;;;;;8.05;1.50;;;;;;;15.13;33.14;100637.63;125418;1102;104110;-79
2022/05/18 07:39:03;;;;;;;2.23;1.20;;;;;;;15.23;33.11;100629.02;125435;1102;119619;-79
2022/05/18 07:45:09;;;;;;;3.80;1.20;;;;;;;15.29;32.66;100645.00;125523;1102;104262;-78
2022/05/18 07:47:46;;;;;;;4.77;1.43;;;;;;;15.27;32.25;100638.80;125354;1102;102268;-82
2022/05/18 07:53:32;;;;;;;6.07;1.20;;;;;;;15.42;32.32;100648.75;124887;1102;102813;-77
2022/05/18 07:56:15;;;;;;;5.50;1.50;;;;;;;15.60;33.35;100637.63;125366;1102;104287;-82
2022/05/18 07:58:45;;;;;;;4.20;1.43;;;;;;;15.76;33.08;100639.65;125549;1102;104223;-80
2022/05/18 08:01:30;;;;;;;5.50;1.40;;;;;;;15.66;32.53;100658.89;125572;1102;102389;-77
2022/05/18 08:04:01;;;;;;;10.17;1.43;;;;;;;15.74;32.53;100651.97;124574;1102;104239;-79
2022/05/18 08:06:33;;;;;;;7.23;1.70;;;;;;;15.77;32.07;100649.41;125231;1102;104166;-78
2022/05/18 08:09:15;;;;;;;4.13;1.40;;;;;;;15.86;32.51;100659.23;125265;1101;102648;-78
2022/05/18 08:15:10;;;;;;;4.00;1.03;;;;;;;15.93;32.26;100657.61;125291;1102;104233;-77
2022/05/18 08:17:45;;;;;;;5.50;1.20;;;;;;;15.90;32.60;100653.14;124579;1101;104226;-79
2022/05/18 08:20:18;;;;;;;3.03;1.17;;;;;;;15.71;32.48;100681.02;125294;1102;103727;-79
2022/05/18 08:22:57;;;;;;;8.33;1.43;;;;;;;15.55;33.30;100676.30;125275;1102;104236;-77
2022/05/18 08:25:34;;;;;;;2.50;1.33;;;;;;;15.53;32.42;100652.47;125287;1102;104428;-78
2022/05/18 08:28:14;;;;;;;3.43;1.30;;;;;;;15.51;33.30;100675.37;125131;1102;104278;-80
2022/05/18 08:31:12;;;;;;;4.13;1.20;;;;;;;15.45;33.22;100673.48;125218;1102;103164;-78
2022/05/18 08:33:45;;;;;;;2.63;1.37;;;;;;;15.49;32.77;100655.03;125332;1102;103342;-78
2022/05/18 08:36:19;;;;;;;7.30;1.30;;;;;;;15.40;32.50;100669.88;125369;1102;103129;-79
2022/05/18 08:38:50;;;;;;;14.90;1.27;;;;;;;15.40;32.44;100669.00;125446;1102;103501;-81
2022/05/18 08:41:24;;;;;;;2.93;1.27;;;;;;;15.57;33.07;100658.73;125094;1102;102799;-78
2022/05/18 08:44:22;;;;;;;7.37;1.50;;;;;;;15.65;33.01;100667.69;125463;1101;104230;-79
2022/05/18 08:47:05;;;;;;;4.93;1.27;;;;;;;15.77;33.44;100660.00;125330;1102;104707;-80
2022/05/18 08:49:40;;;;;;;4.67;1.43;;;;;;;15.74;32.54;100666.97;125291;1102;104238;-79
2022/05/18 08:52:28;;;;;;;2.63;1.20;;;;;;;15.85;32.93;100660.13;125295;1102;102498;-78
2022/05/18 08:56:20;;;;;;;5.33;1.47;;;;;;;15.76;33.02;100681.98;125192;1102;103214;-80
2022/05/18 08:58:59;;;;;;;4.35;1.20;;;;;;;15.80;31.61;100669.75;125333;1102;104191;-79
2022/05/18 09:02:08;;;;;;;3.07;1.43;;;;;;;15.79;32.36;100684.71;125428;1102;102550;-79
2022/05/18 09:04:56;;;;;;;2.93;1.40;;;;;;;15.83;32.01;100675.06;125164;1105;103734;-78
2022/05/18 09:07:41;;;;;;;3.20;1.43;;;;;;;15.83;32.64;100680.35;125140;1106;107880;-79
2022/05/18 09:10:49;;;;;;;;;;;;;;;;;;;;;
2022/05/18 09:14:02;;;;;;;5.00;1.40;;;;;;;15.59;32.61;100675.51;125331;1102;103573;-83
2022/05/18 09:16:49;;;;;;;7.20;1.30;;;;;;;15.64;32.78;100687.96;125299;1106;102986;-80
2022/05/18 09:19:36;;;;;;;0.73;0.73;;;;;;;15.69;32.48;100676.55;125400;1102;104211;-78
2022/05/18 09:22:26;;;;;;;2.43;1.23;;;;;;;15.80;32.31;100683.86;125419;1106;102841;-79
2022/05/18 09:25:18;;;;;;;1.00;0.80;;;;;;;15.88;31.30;100675.14;125325;1105;101816;-79
2022/05/18 09:28:13;;;;;;;3.70;1.80;;;;;;;16.05;31.94;100678.98;125323;1105;109795;-80
2022/05/18 09:31:15;;;;;;;2.33;1.23;;;;;;;16.20;31.29;100686.25;125404;1105;104156;-79
2022/05/18 09:34:23;;;;;;;3.37;1.10;;;;;;;16.16;30.78;100681.80;125511;1106;103731;-78
2022/05/18 09:37:23;;;;;;;4.17;1.27;;;;;;;15.99;31.31;100702.70;124948;1105;102546;-80
2022/05/18 09:43:20;;;;;;;2.80;1.20;;;;;;;16.01;31.65;100676.26;125262;1105;102398;-78
2022/05/18 09:46:02;;;;;;;4.20;1.70;;;;;;;15.93;32.09;100686.72;124528;1105;104313;-77
2022/05/18 09:48:53;;;;;;;2.53;1.17;;;;;;;15.79;31.33;100703.23;125853;1102;118983;-76
2022/05/18 09:51:28;;;;;;;2.03;1.07;;;;;;;15.85;31.58;100688.31;124397;1102;102430;-79
2022/05/18 09:54:14;;;;;;;4.03;1.67;;;;;;;15.90;31.62;100713.12;124589;1103;102326;-79
2022/05/18 09:56:53;;;;;;;2.60;1.40;;;;;;;15.93;31.32;100707.89;124866;1102;103437;-79
2022/05/18 09:59:35;;;;;;;3.03;1.10;;;;;;;16.01;31.70;100677.14;124837;1102;102711;-78
2022/05/18 10:08:10;;;;;;;7.50;1.00;;;;;;;16.41;30.44;100676.84;124632;1102;103482;-79
2022/05/18 10:10:42;;;;;;;2.03;0.90;;;;;;;16.32;30.54;100674.98;125416;1102;103165;-78
2022/05/18 10:13:35;;;;;;;4.23;1.20;;;;;;;16.31;31.38;100705.88;125617;1102;102458;-79
2022/05/18 10:19:31;;;;;;;4.67;1.13;;;;;;;16.47;31.52;100683.15;125913;1102;108042;-81
2022/05/18 10:26:06;;;;;;;7.63;1.50;;;;;;;16.73;31.14;100679.95;125869;1103;102119;-79
2022/05/18 10:28:58;;;;;;;3.33;1.43;;;;;;;16.86;30.58;100681.94;125782;1102;102524;-80
2022/05/18 10:31:42;;;;;;;3.17;1.30;;;;;;;17.04;30.52;100697.17;125491;1105;103069;-81
2022/05/18 10:34:24;;;;;;;;;;;;;;;17.11;29.45;100684.91;125358;1105;103266;-82
2022/05/18 10:37:10;;;;;;;5.25;1.32;;;;;;;17.19;30.06;100693.83;125239;1105;104325;-80
2022/05/18 10:39:48;;;;;;;6.35;1.40;;;;;;;17.12;29.91;100697.27;125197;1102;102433;-80
2022/05/18 10:42:48;;;;;;;;;;;;;;;;;;;;;
2022/05/18 10:45:47;;;;;;;4.03;1.20;;;;;;;16.68;29.98;100709.03;126017;1102;103063;-81
2022/05/18 10:48:33;;;;;;;5.70;1.40;;;;;;;16.80;29.56;100695.08;126036;1102;103168;-81
2022/05/18 10:51:43;;;;;;;;;;;;;;;;;;;;;
2022/05/18 10:54:48;;;;;;;;;;;;;;;;;;;;;
2022/05/18 10:57:41;;;;;;;12.07;1.80;;;;;;;17.05;30.08;100721.94;126303;1102;102971;-81
2022/05/18 11:00:17;;;;;;;6.00;1.20;;;;;;;16.95;30.02;100712.08;126223;1102;102851;-81
2022/05/18 11:03:12;;;;;;;2.13;1.40;;;;;;;16.95;30.43;100696.17;126302;1100;102706;-78
2022/05/18 11:06:19;;;;;;;5.83;1.43;;;;;;;16.96;30.02;100727.12;126188;1101;102551;-80
2022/05/18 11:09:09;;;;;;;6.30;1.32;;;;;;;16.98;30.89;100722.72;126053;1102;102447;-77
2022/05/18 11:11:53;;;;;;;3.53;1.33;;;;;;;16.88;30.83;100721.72;125519;1101;102860;-79
2022/05/18 11:14:40;;;;;;;7.33;1.57;;;;;;;16.78;30.51;100755.13;125521;1102;103461;-79
2022/05/18 11:17:33;;;;;;;4.50;1.33;;;;;;;16.68;31.65;100745.25;125459;1102;104004;-79
2022/05/18 11:20:19;;;;;;;4.20;1.87;;;;;;;16.79;31.75;100754.23;124952;1102;102839;-78
2022/05/18 11:23:06;;;;;;;4.90;1.40;;;;;;;16.70;31.12;100755.02;125562;1102;102649;-78
2022/05/18 11:25:52;;;;;;;4.40;1.20;;;;;;;16.65;31.69;100753.16;124927;1102;104165;-79
2022/05/18 11:28:38;;;;;;;10.23;1.53;;;;;;;16.58;31.61;100748.62;124960;1102;104263;-79
2022/05/18 11:31:32;;;;;;;3.27;1.20;;;;;;;16.62;32.12;100755.75;125457;1102;107580;-80
2022/05/18 11:34:12;;;;;;;4.27;1.30;;;;;;;16.45;32.83;100774.91;125461;1102;102575;-80
2022/05/18 11:39:54;;;;;;;2.30;0.87;;;;;;;16.18;33.14;100759.48;125358;1102;101963;-79
2022/05/18 11:42:50;;;;;;;3.07;1.00;;;;;;;15.96;34.45;100761.75;124935;1102;104204;-79
2022/05/18 11:45:34;;;;;;;1.47;0.67;;;;;;;15.78;35.15;100774.64;124927;1102;103841;-79
2022/05/18 11:48:30;;;;;;;3.80;1.00;;;;;;;15.72;35.22;100779.78;125625;1101;104191;-80
2022/05/18 11:51:20;;;;;;;9.87;1.13;;;;;;;15.59;34.82;100774.25;125315;1102;104156;-79
2022/05/18 11:54:03;;;;;;;2.87;0.80;;;;;;;15.44;36.68;100789.81;125360;1102;104269;-80
2022/05/18 11:56:56;;;;;;;5.53;1.00;;;;;;;15.42;36.18;100794.19;125765;1102;104172;-80
2022/05/18 11:59:57;;;;;;;2.20;0.77;;;;;;;15.25;35.94;100792.10;126137;1102;103095;-79
2022/05/18 12:02:55;;;;;;;6.70;1.20;;;;;;;15.03;36.55;100798.64;124670;1102;104166;-79
2022/05/18 12:06:16;;;;;;;5.87;0.93;;;;;;;14.81;37.61;100809.60;125405;1102;102590;-79
2022/05/18 12:09:17;;;;;;;8.20;1.93;;;;;;;14.78;36.83;100802.48;125481;1102;103660;-79
2022/05/18 12:12:04;;;;;;;3.13;1.00;;;;;;;14.87;38.32;100810.63;124839;1102;104188;-79
2022/05/18 12:15:01;;;;;;;2.50;1.00;;;;;;;15.00;38.70;100817.07;124703;1102;103833;-80
2022/05/18 12:17:47;;;;;;;3.97;1.43;;;;;;;15.27;37.22;100815.92;125563;1102;103982;-79
2022/05/18 12:20:32;;;;;;;1.77;0.80;;;;;;;15.17;37.80;100806.87;125475;1102;102991;-79
2022/05/18 12:23:11;;;;;;;1.20;0.90;;;;;;;15.06;37.17;100825.14;125544;1102;102586;-78
2022/05/18 12:25:56;;;;;;;2.07;1.17;;;;;;;15.01;37.57;100836.48;126192;1101;103315;-79
2022/05/18 12:28:50;;;;;;;4.33;1.00;;;;;;;14.94;37.92;100827.50;125839;1100;102719;-79
2022/05/18 12:31:27;;;;;;;2.10;1.23;;;;;;;14.89;37.70;100826.52;124715;1102;102777;-80
2022/05/18 12:34:16;;;;;;;5.17;1.40;;;;;;;14.85;38.59;100835.21;125025;1102;102586;-78
2022/05/18 12:37:07;;;;;;;1.93;1.20;;;;;;;14.82;38.71;100825.48;124912;1102;104150;-79
2022/05/18 12:40:08;;;;;;;4.30;1.50;;;;;;;14.89;38.28;100816.83;124772;1102;103721;-79
2022/05/18 12:43:12;;;;;;;2.87;1.30;;;;;;;14.97;37.94;100834.62;125329;1102;105418;-80
2022/05/18 12:45:50;;;;;;;2.73;1.10;;;;;;;14.95;37.69;100829.30;125417;1102;102714;-78
2022/05/18 12:48:39;;;;;;;4.20;1.83;;;;;;;14.90;37.96;100830.95;125466;1102;103365;-80
2022/05/18 12:51:18;;;;;;;1.97;1.20;;;;;;;14.90;38.48;100817.74;124635;1103;104262;-79
2022/05/18 12:54:14;;;;;;;3.27;2.13;;;;;;;14.89;38.85;100831.80;124683;1102;118505;-78
2022/05/18 12:57:16;;;;;;;5.13;1.17;;;;;;;14.77;38.78;100842.07;125328;1102;102544;-82
2022/05/18 13:03:26;;;;;;;4.00;1.40;;;;;;;14.51;39.46;100835.27;125267;1106;103393;-80
2022/05/18 13:06:01;;;;;;;2.50;1.43;;;;;;;14.43;39.69;100839.47;124967;1106;103739;-78
2022/05/18 13:09:03;;;;;;;4.90;1.50;;;;;;;14.33;39.80;100835.68;124467;1105;104829;-78
2022/05/18 13:12:00;;;;;;;3.20;1.30;;;;;;;14.33;39.60;100842.72;125157;1106;103008;-79
2022/05/18 13:15:04;;;;;;;4.03;1.53;;;;;;;14.33;40.11;100840.96;124573;1105;102849;-80
2022/05/18 13:18:01;;;;;;;2.37;1.40;;;;;;;14.29;39.99;100851.40;125021;1103;104194;-82
2022/05/18 13:20:46;;;;;;;4.03;1.55;;;;;;;14.22;40.17;100858.27;125237;1102;102310;-81
2022/05/18 13:23:53;;;;;;;3.33;1.53;;;;;;;14.16;40.22;100835.27;124386;1102;104345;-80
2022/05/18 13:26:47;;;;;;;2.95;1.40;;;;;;;14.10;39.63;100847.39;124356;1105;104373;-81
2022/05/18 13:29:30;;;;;;;5.75;1.62;;;;;;;14.09;40.21;100853.54;125109;1105;102838;-80
2022/05/18 13:32:10;;;;;;;2.47;1.20;;;;;;;14.14;40.37;100838.71;125198;1105;104262;-80
2022/05/18 13:35:32;;;;;;;;;;;;;;;;;;;;;
2022/05/18 13:38:40;;;;;;;3.03;1.60;;;;;;;14.22;39.41;100845.08;125298;1102;104020;-79
2022/05/18 13:41:32;;;;;;;6.23;1.43;;;;;;;14.16;39.93;100840.55;125424;1102;102407;-82
2022/05/18 13:44:25;;;;;;;3.07;1.50;;;;;;;14.14;39.61;100846.63;125416;1102;102431;-80
2022/05/18 13:47:23;;;;;;;4.43;1.83;;;;;;;14.19;39.71;100852.91;125174;1102;103210;-81
2022/05/18 13:50:24;;;;;;;7.43;1.70;;;;;;;14.21;39.26;100832.75;125356;1102;103497;-83
2022/05/18 13:53:05;;;;;;;4.40;2.10;;;;;;;14.27;39.15;100856.64;125374;1102;103245;-81
2022/05/18 13:55:47;;;;;;;4.60;1.90;;;;;;;14.27;39.40;100838.16;125255;1102;107463;-79
2022/05/18 13:58:23;;;;;;;4.80;1.30;;;;;;;14.29;39.43;100852.31;125238;1102;103571;-80
2022/05/18 14:01:19;;;;;;;1.57;1.20;;;;;;;14.26;38.80;100848.68;125370;1102;103017;-80
2022/05/18 14:04:12;;;;;;;1.87;1.20;;;;;;;14.30;39.06;100846.16;125277;1102;103112;-80
2022/05/18 14:06:57;;;;;;;3.57;1.37;;;;;;;14.32;38.68;100849.75;125236;1102;104396;-80
2022/05/18 14:09:38;;;;;;;4.93;2.17;;;;;;;14.38;39.07;100849.00;125137;1102;103669;-80
2022/05/18 14:12:19;;;;;;;3.80;1.77;;;;;;;14.44;38.34;100850.91;125312;1102;102823;-79
2022/05/18 14:14:59;;;;;;;3.97;1.40;;;;;;;14.45;39.25;100847.44;125230;1105;103729;-79
2022/05/18 14:17:41;;;;;;;4.57;1.60;;;;;;;14.47;38.55;100854.52;125316;1103;104162;-80
2022/05/18 14:20:36;;;;;;;5.90;1.43;;;;;;;14.43;38.67;100854.40;125368;1105;105098;-81
2022/05/18 14:23:16;;;;;;;5.67;1.30;;;;;;;14.43;38.24;100862.31;125193;1102;104112;-80
2022/05/18 14:25:54;;;;;;;4.30;1.23;;;;;;;14.48;38.22;100855.43;125324;1105;102433;-78
2022/05/18 14:28:31;;;;;;;2.40;1.20;;;;;;;14.55;38.78;100868.83;125389;1102;104160;-81
2022/05/18 14:31:06;;;;;;;2.33;1.17;;;;;;;14.61;37.71;100861.94;125252;1102;104165;-79
2022/05/18 14:33:49;;;;;;;5.10;1.20;;;;;;;14.62;37.88;100867.27;124337;1102;103744;-78
2022/05/18 14:36:35;;;;;;;2.37;1.10;;;;;;;14.61;37.80;100868.11;125182;1102;108505;-78
2022/05/18 14:39:11;;;;;;;3.33;1.40;;;;;;;14.66;38.46;100863.85;125201;1102;103503;-79
2022/05/18 14:41:49;;;;;;;2.80;1.43;;;;;;;14.66;38.26;100861.21;125307;1105;103818;-78
2022/05/18 14:44:49;;;;;;;3.00;1.40;;;;;;;14.69;38.09;100870.94;125225;1106;104290;-79
2022/05/18 14:47:30;;;;;;;3.13;1.23;;;;;;;14.70;37.63;100873.62;125247;1102;102240;-79
2022/05/18 14:50:13;;;;;;;4.77;1.00;;;;;;;14.73;37.53;100868.41;125306;1102;104146;-80
2022/05/18 14:52:53;;;;;;;1.77;1.20;;;;;;;14.82;37.37;100872.13;125403;1102;104166;-77
2022/05/18 14:55:28;;;;;;;5.10;1.50;;;;;;;14.83;37.67;100879.20;124721;1102;103219;-78
2022/05/18 14:58:09;;;;;;;3.40;1.23;;;;;;;14.82;37.46;100880.05;124698;1102;104185;-79
2022/05/18 15:00:57;;;;;;;2.90;1.20;;;;;;;14.88;38.32;100872.27;124595;1102;104089;-79
2022/05/18 15:03:42;;;;;;;4.27;1.47;;;;;;;14.95;38.45;100878.63;125252;1102;104182;-78
2022/05/18 15:06:17;;;;;;;4.83;1.10;;;;;;;15.01;37.53;100882.30;124531;1102;104232;-78
2022/05/18 15:08:53;;;;;;;3.20;1.20;;;;;;;15.02;38.28;100892.02;124459;1102;102352;-79
2022/05/18 15:11:39;;;;;;;2.43;1.50;;;;;;;15.07;37.71;100892.13;124472;1102;104305;-78
2022/05/18 15:14:26;;;;;;;3.90;1.77;;;;;;;15.06;37.44;100892.97;125244;1102;104185;-78
2022/05/18 15:17:13;;;;;;;1.63;1.00;;;;;;;14.98;38.03;100894.55;124545;1102;104779;-78
2022/05/18 15:19:58;;;;;;;5.23;1.60;;;;;;;15.01;37.36;100890.22;125282;1102;103269;-78
2022/05/18 15:22:37;;;;;;;5.73;1.50;;;;;;;15.01;38.33;100891.98;125380;1102;104195;-79
2022/05/18 15:25:41;;;;;;;1.97;1.30;;;;;;;15.03;37.89;100899.06;124552;1102;104172;-78
2022/05/18 15:28:22;;;;;;;2.97;1.70;;;;;;;14.94;38.39;100898.84;124462;1102;103565;-79
2022/05/18 15:30:57;;;;;;;3.50;1.40;;;;;;;14.89;38.29;100906.66;124531;1102;104854;-80
2022/05/18 15:33:36;;;;;;;10.27;1.87;;;;;;;14.88;37.98;100903.98;125222;1102;104252;-80
2022/05/18 15:36:12;;;;;;;3.40;1.57;;;;;;;14.87;38.09;100921.59;125225;1102;103001;-80
2022/05/18 15:38:47;;;;;;;4.27;1.53;;;;;;;14.83;37.97;100919.72;125197;1102;102307;-81
2022/05/18 15:41:23;;;;;;;2.83;1.57;;;;;;;14.77;39.08;100924.84;125212;1102;104576;-80
2022/05/18 15:43:57;;;;;;;2.77;1.67;;;;;;;14.67;38.98;100934.29;124382;1102;104191;-80
2022/05/18 15:46:34;;;;;;;5.37;1.60;;;;;;;14.59;39.14;100927.89;125162;1102;104203;-79
2022/05/18 15:49:09;;;;;;;2.37;1.43;;;;;;;14.56;39.21;100954.22;124550;1100;104185;-80
2022/05/18 15:51:42;;;;;;;7.20;1.90;;;;;;;14.54;40.08;100932.17;124508;1102;104262;-79
2022/05/18 15:54:15;;;;;;;2.83;1.87;;;;;;;14.59;39.49;100927.89;124543;1102;104383;-79